Bonito, Brazil
Current Conditions -  °F | °C
As of 8:00 PM on Thursday 20 Nov 2014 (Local Time) from SBCG Reporting Station
Thunderstorm Thunderstorm  
Wind Chill: 73°   Ceiling: Unl
Heat Index: 73°   Visibility: 6mi
Dew Point: 70°   Wind: 3mph
Humidity: 88%   Direction: 100°E
Pressure: NA   Gusts: NA
Location:  21.12°S, 56.48°W
Report Text: SBCG 202300Z 10003KT 9999 VCTS FEW021 SCT023 FEW040CB 23/21 Q1013
Loading
Personal Weather Stations






























Interactive Weather Map New forecast layout! Learn more

10-Day Weather Forecast

Advertisements
Track Severe Weather on mobile